Time;durP1;ratioP1;P1;durP2;ratioP2;P2;SDS_P1;SDS_P2;PMS_P1;PMS_P2;Temp;Humidity;BMP_temperature;BMP_pressure;BME280_temperature;BME280_humidity;BME280_pressure;Samples;Min_cycle;Max_cycle;Signal;HPM_P1;HPM_P2
2021/08/16 00:00:31;;;;;;;11.88;3.88;;;;;;;19.06;66.63;99591.41;127052;1093;26280;-82
2021/08/16 00:03:12;;;;;;;12.88;4.80;;;;;;;19.04;66.69;99585.55;127046;1092;26271;-82
2021/08/16 00:05:44;;;;;;;13.13;4.20;;;;;;;19.01;67.21;99584.60;126976;1092;22854;-82
2021/08/16 00:08:15;;;;;;;17.08;4.80;;;;;;;19.00;67.22;99583.07;127033;1093;22779;-83
2021/08/16 00:10:47;;;;;;;11.85;4.50;;;;;;;19.00;67.39;99588.73;127109;1093;22832;-82
2021/08/16 00:13:20;;;;;;;11.30;3.73;;;;;;;19.00;67.55;99579.48;127055;1092;22937;-82
2021/08/16 00:15:52;;;;;;;14.98;4.38;;;;;;;18.96;67.38;99573.41;127063;1092;22817;-82
2021/08/16 00:18:23;;;;;;;15.55;5.10;;;;;;;18.93;68.15;99574.53;127080;1092;22764;-82
2021/08/16 00:20:54;;;;;;;12.63;5.17;;;;;;;18.90;67.59;99565.08;126944;1093;27239;-83
2021/08/16 00:23:26;;;;;;;15.08;5.38;;;;;;;18.88;67.99;99562.05;127059;1092;22811;-82
2021/08/16 00:25:57;;;;;;;16.18;5.20;;;;;;;18.87;67.88;99562.61;127099;1092;22861;-82
2021/08/16 00:28:28;;;;;;;19.47;6.67;;;;;;;18.83;68.26;99550.88;127083;1093;27421;-83
2021/08/16 00:30:59;;;;;;;12.88;4.38;;;;;;;18.79;68.12;99556.87;127082;1092;22788;-82
2021/08/16 00:33:32;;;;;;;13.23;4.30;;;;;;;18.77;68.37;99551.00;127109;1092;26047;-82
2021/08/16 00:36:04;;;;;;;16.98;5.25;;;;;;;18.76;68.43;99549.50;127064;1092;23431;-82
2021/08/16 00:38:35;;;;;;;13.40;4.78;;;;;;;18.77;68.34;99545.34;127054;1093;22787;-82
2021/08/16 00:41:06;;;;;;;12.78;4.00;;;;;;;18.75;68.28;99555.69;127161;1093;23800;-82
2021/08/16 00:43:38;;;;;;;15.13;5.00;;;;;;;18.72;68.43;99554.75;127106;1092;22856;-82
2021/08/16 00:46:09;;;;;;;16.53;4.90;;;;;;;18.69;68.29;99547.36;127119;1093;22952;-82
2021/08/16 00:48:41;;;;;;;15.53;5.08;;;;;;;18.70;68.76;99551.72;127135;1092;22998;-82
2021/08/16 00:51:13;;;;;;;17.53;5.77;;;;;;;18.70;68.91;99550.95;127168;1093;22761;-82
2021/08/16 00:53:45;;;;;;;16.00;4.55;;;;;;;18.67;68.69;99540.73;127122;1092;22830;-82
2021/08/16 00:56:17;;;;;;;12.27;4.20;;;;;;;18.66;69.00;99544.88;127086;1092;22775;-81
2021/08/16 00:58:48;;;;;;;15.00;5.15;;;;;;;18.67;68.89;99540.73;127221;1093;22871;-81
2021/08/16 01:01:20;;;;;;;13.58;4.88;;;;;;;18.65;68.83;99532.80;127251;1093;22761;-82
2021/08/16 01:03:51;;;;;;;13.63;5.28;;;;;;;18.61;68.95;99543.70;127171;1092;27198;-81
2021/08/16 01:06:22;;;;;;;22.07;5.03;;;;;;;18.58;69.02;99541.23;127142;1093;26251;-81
2021/08/16 01:08:54;;;;;;;14.93;5.47;;;;;;;18.56;69.15;99536.88;127238;1093;27319;-82
2021/08/16 01:11:26;;;;;;;15.63;4.97;;;;;;;18.55;69.06;99535.38;127270;1092;27407;-82
2021/08/16 01:13:57;;;;;;;14.87;4.73;;;;;;;18.54;69.25;99530.25;127535;1092;27325;-81
2021/08/16 01:16:29;;;;;;;15.23;5.53;;;;;;;18.52;69.24;99521.56;127619;1093;22811;-81
2021/08/16 01:19:00;;;;;;;14.68;5.15;;;;;;;18.47;68.95;99520.41;127656;1093;22887;-81
2021/08/16 01:21:31;;;;;;;16.20;5.10;;;;;;;18.46;69.35;99518.11;127705;1092;22808;-81
2021/08/16 01:24:03;;;;;;;16.10;5.50;;;;;;;18.45;69.18;99514.55;127276;1093;22811;-81
2021/08/16 01:26:37;;;;;;;14.23;5.50;;;;;;;18.42;69.49;99509.95;127187;1093;22852;-81
2021/08/16 01:29:17;;;;;;;13.50;5.00;;;;;;;18.37;69.34;99508.02;127065;1091;22706;-82
2021/08/16 01:31:49;;;;;;;19.10;5.03;;;;;;;18.35;69.29;99515.55;127027;1092;25758;-81
2021/08/16 01:34:21;;;;;;;14.97;4.80;;;;;;;18.34;69.36;99520.44;127106;1093;22925;-82
2021/08/16 01:36:53;;;;;;;13.00;5.03;;;;;;;18.33;69.61;99516.08;127127;1093;22895;-81
2021/08/16 01:39:25;;;;;;;15.05;4.75;;;;;;;18.31;69.70;99521.52;127182;1093;22791;-81
2021/08/16 01:41:56;;;;;;;14.97;6.90;;;;;;;18.31;69.52;99526.44;127178;1093;23369;-82
2021/08/16 01:44:27;;;;;;;13.80;5.47;;;;;;;18.27;69.56;99512.63;127166;1093;22847;-82
2021/08/16 01:46:59;;;;;;;15.20;5.80;;;;;;;18.25;69.85;99509.59;127164;1093;22776;-82
2021/08/16 01:49:30;;;;;;;15.53;5.37;;;;;;;18.22;69.60;99510.70;127113;1093;22957;-82
2021/08/16 01:52:01;;;;;;;13.85;4.33;;;;;;;18.18;69.78;99498.22;127220;1092;22970;-81
2021/08/16 01:54:33;;;;;;;12.47;4.57;;;;;;;18.10;69.84;99495.33;127183;1092;22784;-81
2021/08/16 01:57:05;;;;;;;15.85;4.65;;;;;;;18.03;69.94;99498.05;127140;1093;22834;-82
2021/08/16 01:59:36;;;;;;;18.83;5.67;;;;;;;18.00;70.43;99496.34;127100;1093;24064;-82
2021/08/16 02:02:08;;;;;;;19.50;5.57;;;;;;;17.99;70.12;99480.69;127172;1093;24144;-82
2021/08/16 02:04:39;;;;;;;17.93;4.53;;;;;;;17.98;70.35;99494.05;127126;1092;26338;-81
2021/08/16 02:07:10;;;;;;;19.25;5.40;;;;;;;17.93;70.31;99478.00;127185;1093;22771;-82
2021/08/16 02:09:41;;;;;;;21.00;7.43;;;;;;;17.94;70.76;99481.59;127086;1093;26313;-82
2021/08/16 02:12:13;;;;;;;19.50;6.67;;;;;;;17.92;71.11;99481.38;127122;1093;22777;-81
2021/08/16 02:14:44;;;;;;;20.83;5.43;;;;;;;17.87;71.52;99470.96;127135;1093;27246;-81
2021/08/16 02:17:16;;;;;;;13.40;4.20;;;;;;;17.75;71.73;99467.64;126936;1093;82949;-58
2021/08/16 02:19:48;;;;;;;14.60;5.25;;;;;;;17.63;71.52;99466.34;125946;1093;24459;-61
2021/08/16 02:22:20;;;;;;;14.65;3.85;;;;;;;17.58;71.98;99468.01;126026;1093;24339;-60
2021/08/16 02:24:52;;;;;;;17.87;4.20;;;;;;;17.58;72.03;99472.89;125993;1093;22751;-60
2021/08/16 02:27:23;;;;;;;14.47;4.83;;;;;;;17.58;71.79;99472.89;126367;1093;22837;-60
2021/08/16 02:29:55;;;;;;;16.40;4.93;;;;;;;17.62;72.18;99473.31;125973;1093;22837;-60
2021/08/16 02:32:27;;;;;;;19.60;5.40;;;;;;;17.66;72.16;99466.03;125873;1092;22916;-59
2021/08/16 02:34:58;;;;;;;17.47;5.37;;;;;;;17.70;72.86;99462.87;125865;1093;22757;-59
2021/08/16 02:37:31;;;;;;;16.15;5.40;;;;;;;17.74;72.99;99457.64;125868;1091;27333;-59
2021/08/16 02:40:02;;;;;;;18.40;5.60;;;;;;;17.78;72.79;99458.83;125880;1093;26204;-60
2021/08/16 02:42:34;;;;;;;15.20;5.85;;;;;;;17.79;73.00;99460.33;125921;1091;22759;-58
2021/08/16 02:45:07;;;;;;;15.60;4.80;;;;;;;17.83;72.92;99464.89;125911;1093;23267;-59
2021/08/16 02:47:38;;;;;;;13.70;5.45;;;;;;;17.84;72.75;99466.40;126213;1093;22817;-60
2021/08/16 02:50:11;;;;;;;15.65;5.80;;;;;;;17.85;72.92;99459.45;125777;1091;22763;-60
2021/08/16 02:52:42;;;;;;;15.90;4.70;;;;;;;17.84;72.98;99469.22;126147;1093;26580;-59
2021/08/16 02:55:15;;;;;;;15.23;5.43;;;;;;;17.83;73.01;99462.84;125898;1093;26250;-59
2021/08/16 02:57:47;;;;;;;13.37;5.20;;;;;;;17.82;73.49;99458.48;126164;1091;26351;-59
2021/08/16 03:00:19;;;;;;;14.70;4.75;;;;;;;17.79;73.70;99460.33;125998;1092;24589;-60
2021/08/16 03:02:50;;;;;;;14.30;5.15;;;;;;;17.79;73.29;99453.95;125942;1091;22785;-59
2021/08/16 03:05:21;;;;;;;17.30;4.95;;;;;;;17.77;73.47;99445.27;125886;1093;22880;-58
2021/08/16 03:07:53;;;;;;;15.50;4.85;;;;;;;17.73;73.74;99453.31;125834;1093;25804;-59
2021/08/16 03:10:24;;;;;;;12.77;5.23;;;;;;;17.72;73.60;99457.43;125979;1093;25845;-60
2021/08/16 03:12:57;;;;;;;13.35;4.70;;;;;;;17.67;73.91;99453.42;125848;1093;22866;-60
2021/08/16 03:15:29;;;;;;;15.10;6.37;;;;;;;17.64;73.89;99453.77;125994;1092;26494;-59
2021/08/16 03:18:01;;;;;;;13.95;5.70;;;;;;;17.62;73.61;99454.32;125855;1093;22778;-60
2021/08/16 03:20:32;;;;;;;12.93;5.03;;;;;;;17.60;73.60;99451.28;126134;1093;22771;-59
2021/08/16 03:23:04;;;;;;;13.90;5.20;;;;;;;17.57;73.81;99437.48;125976;1093;26021;-60
2021/08/16 03:25:35;;;;;;;14.40;5.75;;;;;;;17.55;74.03;99431.63;125882;1092;22758;-60
2021/08/16 03:28:07;;;;;;;13.30;4.70;;;;;;;17.53;73.80;99431.42;125868;1093;22787;-59
2021/08/16 03:30:40;;;;;;;14.25;4.80;;;;;;;17.50;74.19;99426.88;125980;1093;24498;-57
2021/08/16 03:33:12;;;;;;;13.80;5.10;;;;;;;17.46;74.64;99437.72;125939;1091;22973;-60
2021/08/16 03:35:44;;;;;;;13.00;5.13;;;;;;;17.36;74.64;99440.22;125872;1093;22824;-59
2021/08/16 03:38:15;;;;;;;16.30;6.30;;;;;;;17.29;75.20;99445.77;125853;1093;22777;-60
2021/08/16 03:40:47;;;;;;;12.00;4.73;;;;;;;17.23;74.99;99445.90;125865;1092;24424;-56
2021/08/16 03:43:18;;;;;;;16.70;5.30;;;;;;;17.18;75.26;99434.71;125953;1093;22892;-60
2021/08/16 03:45:50;;;;;;;16.30;6.00;;;;;;;17.19;75.03;99436.24;125903;1093;24446;-59
2021/08/16 03:48:21;;;;;;;19.20;5.30;;;;;;;17.18;74.91;99435.48;125997;1093;22954;-60
2021/08/16 03:50:53;;;;;;;13.90;5.10;;;;;;;17.19;75.08;99442.65;125938;1093;22732;-60
2021/08/16 03:53:24;;;;;;;15.30;5.90;;;;;;;17.18;75.13;99438.30;125966;1093;22842;-59
2021/08/16 03:55:55;;;;;;;15.25;5.75;;;;;;;17.21;75.05;99439.27;125897;1093;22784;-59
2021/08/16 03:58:27;;;;;;;12.77;4.70;;;;;;;17.22;75.13;99435.14;125844;1092;27214;-60
2021/08/16 04:01:00;;;;;;;18.90;5.70;;;;;;;17.21;75.27;99431.58;126113;1093;22841;-60
2021/08/16 04:03:31;;;;;;;13.25;5.40;;;;;;;17.23;75.68;99433.84;126027;1093;22831;-59
2021/08/16 04:06:03;;;;;;;19.10;5.85;;;;;;;17.23;75.40;99431.80;125862;1093;26486;-60
2021/08/16 04:08:38;;;;;;;12.67;5.27;;;;;;;17.25;75.86;99429.19;125887;1093;22813;-60
2021/08/16 04:11:10;;;;;;;14.60;5.90;;;;;;;17.27;75.73;99422.98;125859;1093;25835;-59
2021/08/16 04:13:42;;;;;;;15.20;5.75;;;;;;;17.31;75.71;99431.88;125814;1093;22751;-58
2021/08/16 04:16:13;;;;;;;16.30;6.50;;;;;;;17.33;76.13;99440.55;125919;1091;22839;-58
2021/08/16 04:18:45;;;;;;;16.20;5.80;;;;;;;17.35;75.95;99435.89;125919;1093;23062;-59
2021/08/16 04:21:16;;;;;;;20.15;6.85;;;;;;;17.39;76.49;99435.55;126002;1093;22781;-61
2021/08/16 04:23:47;;;;;;;18.90;7.60;;;;;;;17.40;76.49;99440.64;125890;1093;25954;-58
2021/08/16 04:26:19;;;;;;;16.20;7.05;;;;;;;17.41;76.33;99442.17;125893;1093;24577;-61
2021/08/16 04:28:50;;;;;;;21.55;7.40;;;;;;;17.44;76.28;99438.25;125884;1093;22778;-58
2021/08/16 04:31:22;;;;;;;20.10;8.50;;;;;;;17.48;76.32;99444.34;125817;1093;22778;-60
2021/08/16 04:33:53;;;;;;;17.00;6.15;;;;;;;17.52;76.16;99444.80;125885;1093;22805;-60
2021/08/16 04:36:24;;;;;;;15.30;6.40;;;;;;;17.57;76.71;99441.08;125853;1092;22803;-60
2021/08/16 04:38:56;;;;;;;17.80;6.40;;;;;;;17.63;76.50;99438.89;126099;1092;24531;-61
2021/08/16 04:41:28;;;;;;;16.00;6.20;;;;;;;17.68;76.50;99443.66;125899;1093;22904;-61
2021/08/16 04:44:01;;;;;;;14.65;5.50;;;;;;;17.73;76.38;99450.49;125873;1093;22844;-60
2021/08/16 04:46:32;;;;;;;15.10;5.90;;;;;;;17.77;76.43;99450.91;125856;1093;22784;-61
2021/08/16 04:49:04;;;;;;;14.15;6.00;;;;;;;17.83;76.48;99447.95;126047;1093;26027;-60
2021/08/16 04:51:36;;;;;;;14.15;6.70;;;;;;;17.89;76.77;99457.05;125857;1093;25893;-61
2021/08/16 04:54:07;;;;;;;18.10;5.80;;;;;;;17.94;77.20;99451.27;125881;1093;22761;-60
2021/08/16 04:56:39;;;;;;;23.25;7.40;;;;;;;17.99;76.67;99449.63;125838;1093;24452;-61
2021/08/16 04:59:10;;;;;;;17.30;7.25;;;;;;;18.04;76.80;99465.69;126019;1093;22851;-61
2021/08/16 05:01:42;;;;;;;17.13;5.70;;;;;;;18.08;76.81;99464.05;125792;1093;24250;-61
2021/08/16 05:04:14;;;;;;;15.20;5.50;;;;;;;18.14;77.09;99469.56;125612;1093;23004;-61
2021/08/16 05:06:46;;;;;;;13.63;4.97;;;;;;;18.21;77.39;99472.45;125709;1093;22778;-61
2021/08/16 05:09:18;;;;;;;13.40;5.10;;;;;;;18.27;77.52;99458.94;125801;1093;23493;-63
2021/08/16 05:11:50;;;;;;;13.45;5.20;;;;;;;18.34;77.40;99466.74;126169;1093;22777;-63
2021/08/16 05:14:23;;;;;;;14.45;4.95;;;;;;;18.43;77.34;99471.95;125800;1093;22835;-63
2021/08/16 05:16:55;;;;;;;13.85;5.35;;;;;;;18.50;77.10;99474.06;129004;1092;24293;-62
2021/08/16 05:19:26;;;;;;;14.55;5.70;;;;;;;18.58;77.30;99466.41;125781;1093;22774;-62
2021/08/16 05:22:01;;;;;;;12.80;5.47;;;;;;;18.66;77.45;99477.80;125943;1093;22842;-61
2021/08/16 05:24:32;;;;;;;15.33;5.87;;;;;;;18.73;77.18;99479.91;125743;1092;22914;-61
2021/08/16 05:27:04;;;;;;;15.85;5.40;;;;;;;18.82;77.12;99481.48;125730;1093;22844;-63
2021/08/16 05:29:36;;;;;;;13.70;5.37;;;;;;;18.92;76.78;99491.75;125917;1092;22806;-63
2021/08/16 05:32:09;;;;;;;14.67;4.77;;;;;;;19.03;77.63;99490.69;126217;1093;27464;-62
2021/08/16 05:34:41;;;;;;;18.43;6.10;;;;;;;19.11;77.24;99486.60;126075;1093;22757;-62
2021/08/16 05:37:13;;;;;;;13.70;5.60;;;;;;;19.23;77.52;99484.20;125711;1093;22742;-62
2021/08/16 05:39:45;;;;;;;13.60;5.53;;;;;;;19.36;77.46;99484.13;125792;1092;22909;-62
2021/08/16 05:42:18;;;;;;;16.40;5.95;;;;;;;19.49;77.30;99483.98;125932;1092;22808;-62
2021/08/16 05:44:49;;;;;;;15.18;5.63;;;;;;;19.62;77.50;99485.94;125983;1092;22790;-62
2021/08/16 05:47:21;;;;;;;13.83;5.58;;;;;;;19.77;77.47;99492.44;125863;1093;22805;-62
2021/08/16 05:49:52;;;;;;;16.03;5.43;;;;;;;19.92;77.00;99494.56;125833;1093;22787;-62
2021/08/16 05:52:23;;;;;;;16.73;6.03;;;;;;;20.06;76.98;99498.75;125983;1093;24571;-63
2021/08/16 05:54:55;;;;;;;16.95;5.20;;;;;;;20.22;76.96;99497.49;125892;1093;25810;-62
2021/08/16 05:57:27;;;;;;;14.33;4.30;;;;;;;20.35;76.86;99505.84;126201;1092;24596;-61
2021/08/16 05:59:59;;;;;;;11.65;4.35;;;;;;;20.49;76.42;99500.74;125936;1092;22794;-61
2021/08/16 06:02:33;;;;;;;19.88;5.18;;;;;;;20.61;76.09;99496.97;125885;1092;22751;-61
2021/08/16 06:05:05;;;;;;;12.83;4.33;;;;;;;20.73;76.14;99495.27;125995;1093;22817;-61
2021/08/16 06:07:37;;;;;;;17.98;4.48;;;;;;;20.86;75.38;99497.92;125880;1093;23321;-61
2021/08/16 06:10:10;;;;;;;15.33;4.58;;;;;;;21.02;75.61;99497.92;125857;1092;22773;-62
2021/08/16 06:12:42;;;;;;;10.20;3.98;;;;;;;21.13;75.26;99492.62;126163;1093;24571;-62
2021/08/16 06:15:14;;;;;;;12.28;5.30;;;;;;;21.24;75.26;99497.91;125881;1093;22849;-62
2021/08/16 06:17:46;;;;;;;9.68;4.48;;;;;;;21.35;75.14;99491.07;126159;1093;23176;-62
2021/08/16 06:20:17;;;;;;;10.83;4.25;;;;;;;21.47;74.54;99498.61;126061;1092;22774;-62
2021/08/16 06:22:49;;;;;;;15.93;4.40;;;;;;;21.58;74.22;99491.77;125886;1093;22796;-62
2021/08/16 06:25:20;;;;;;;12.83;4.35;;;;;;;21.67;73.95;99496.82;125884;1092;25839;-61
2021/08/16 06:27:52;;;;;;;14.13;4.43;;;;;;;21.77;73.63;99491.31;125904;1093;22784;-62
2021/08/16 06:30:23;;;;;;;15.55;4.70;;;;;;;21.86;73.55;99487.87;126225;1093;24603;-61
2021/08/16 06:32:55;;;;;;;12.33;4.70;;;;;;;21.96;73.42;99488.77;125939;1093;27644;-61
2021/08/16 06:35:26;;;;;;;13.67;3.77;;;;;;;22.04;73.29;99489.47;125930;1093;27599;-61
2021/08/16 06:37:59;;;;;;;14.65;5.38;;;;;;;22.12;73.02;99490.95;126476;1093;22828;-62
2021/08/16 06:40:32;;;;;;;14.65;4.90;;;;;;;22.20;72.66;99491.66;126099;1093;22765;-61
2021/08/16 06:43:05;;;;;;;18.95;4.63;;;;;;;22.26;72.44;99488.61;126012;1093;22761;-62
2021/08/16 06:45:37;;;;;;;15.40;5.80;;;;;;;22.32;71.79;99486.28;125904;1092;22911;-61
2021/08/16 06:48:09;;;;;;;16.00;4.45;;;;;;;22.38;71.62;99486.81;127598;1093;26223;-62
2021/08/16 06:50:41;;;;;;;13.00;3.73;;;;;;;22.43;71.38;99483.73;126123;1093;23611;-62
2021/08/16 06:53:14;;;;;;;11.27;3.47;;;;;;;22.49;71.29;99487.09;125934;1093;22833;-62
2021/08/16 06:55:47;;;;;;;13.75;3.65;;;;;;;22.59;70.82;99489.34;126025;1093;26436;-63
2021/08/16 06:58:19;;;;;;;13.95;4.10;;;;;;;22.70;70.80;99491.73;126017;1093;26330;-62
2021/08/16 07:00:50;;;;;;;13.15;3.83;;;;;;;22.81;70.60;99497.69;125859;1093;22777;-62
2021/08/16 07:03:22;;;;;;;17.80;3.88;;;;;;;22.96;69.91;99499.66;125684;1091;26226;-62
2021/08/16 07:05:55;;;;;;;13.93;3.18;;;;;;;23.06;69.23;99503.35;125996;1092;22751;-62
2021/08/16 07:08:27;;;;;;;8.75;3.15;;;;;;;23.17;69.45;99506.45;126599;1093;25880;-63
2021/08/16 07:10:58;;;;;;;12.33;3.00;;;;;;;23.31;68.68;99507.66;126003;1091;22761;-63
2021/08/16 07:13:32;;;;;;;11.20;2.40;;;;;;;23.44;68.39;99508.70;125725;1093;25691;-62
2021/08/16 07:16:04;;;;;;;11.83;4.00;;;;;;;23.53;68.23;99503.08;125877;1093;22858;-62
2021/08/16 07:18:36;;;;;;;10.33;2.37;;;;;;;23.65;67.65;99501.22;126161;1093;22842;-62
2021/08/16 07:21:08;;;;;;;10.45;3.25;;;;;;;23.77;67.45;99499.38;125876;1092;22758;-64
2021/08/16 07:23:39;;;;;;;9.05;2.65;;;;;;;23.89;66.50;99503.22;125798;1093;22780;-62
2021/08/16 07:26:11;;;;;;;10.88;3.08;;;;;;;23.98;66.54;99510.33;125791;1093;25839;-63
2021/08/16 07:28:45;;;;;;;12.28;3.55;;;;;;;24.07;66.30;99503.95;125898;1093;22758;-63
2021/08/16 07:31:17;;;;;;;10.40;3.53;;;;;;;24.14;66.09;99510.90;125768;1093;24422;-64
2021/08/16 07:33:49;;;;;;;10.25;2.78;;;;;;;24.20;65.20;99517.09;125890;1093;22750;-63
2021/08/16 07:36:21;;;;;;;12.55;3.95;;;;;;;24.24;64.83;99518.17;125856;1092;22849;-63
2021/08/16 07:38:53;;;;;;;8.70;2.45;;;;;;;24.28;63.13;99520.58;125878;1093;22775;-62
2021/08/16 07:41:24;;;;;;;11.15;3.18;;;;;;;24.33;63.40;99519.57;125731;1092;27319;-63
2021/08/16 07:43:55;;;;;;;14.23;4.27;;;;;;;24.36;63.29;99515.52;125781;1093;22757;-63
2021/08/16 07:46:27;;;;;;;9.18;2.83;;;;;;;24.39;63.16;99517.96;125768;1093;22840;-63
2021/08/16 07:48:58;;;;;;;10.95;2.80;;;;;;;24.45;62.74;99509.88;125807;1093;22803;-63
2021/08/16 07:51:30;;;;;;;10.08;2.93;;;;;;;24.59;62.26;99513.84;125783;1093;22751;-62
2021/08/16 07:54:02;;;;;;;9.28;2.55;;;;;;;24.69;61.98;99511.78;125792;1093;24457;-62
2021/08/16 07:56:33;;;;;;;11.03;2.60;;;;;;;24.80;61.52;99519.82;126192;1093;25842;-63
2021/08/16 07:59:15;;;;;;;8.85;2.40;;;;;;;24.91;60.78;99514.89;125796;1092;25960;-63
2021/08/16 08:01:49;;;;;;;11.55;3.10;;;;;;;25.02;60.18;99517.16;125733;1091;23251;-63
2021/08/16 08:04:21;;;;;;;9.63;3.07;;;;;;;25.09;59.85;99516.28;125859;1093;22787;-63
2021/08/16 08:06:52;;;;;;;7.40;3.23;;;;;;;25.18;59.48;99519.15;125885;1093;23364;-63
2021/08/16 08:09:24;;;;;;;9.23;2.85;;;;;;;25.28;58.60;99519.95;125782;1093;22757;-63
2021/08/16 08:11:55;;;;;;;9.18;2.90;;;;;;;25.40;58.70;99522.95;125817;1093;26251;-62
2021/08/16 08:14:26;;;;;;;10.00;3.27;;;;;;;25.48;58.56;99520.73;126295;1092;22800;-63
2021/08/16 08:16:58;;;;;;;9.38;2.80;;;;;;;25.58;58.05;99524.34;125804;1093;22735;-63
2021/08/16 08:19:30;;;;;;;9.35;1.80;;;;;;;25.65;56.15;99529.93;125850;1093;23729;-62
2021/08/16 08:22:02;;;;;;;7.20;1.98;;;;;;;25.72;55.03;99528.25;125761;1093;22787;-63
2021/08/16 08:24:33;;;;;;;7.05;2.00;;;;;;;25.81;55.48;99524.65;125796;1091;22784;-63
2021/08/16 08:27:06;;;;;;;6.70;1.70;;;;;;;25.86;54.07;99534.28;125842;1093;22784;-63
2021/08/16 08:29:38;;;;;;;7.87;2.10;;;;;;;25.94;54.09;99532.02;125808;1091;25951;-62
2021/08/16 08:32:10;;;;;;;7.38;1.90;;;;;;;26.01;54.07;99533.98;125802;1092;22757;-63
2021/08/16 08:34:42;;;;;;;10.70;2.20;;;;;;;26.11;53.56;99524.03;125914;1093;22806;-62
2021/08/16 08:37:14;;;;;;;9.88;2.10;;;;;;;26.18;53.13;99525.23;125768;1092;22746;-62
2021/08/16 08:39:47;;;;;;;6.25;1.65;;;;;;;26.29;52.07;99518.89;125917;1093;25810;-62
2021/08/16 08:42:18;;;;;;;6.80;1.60;;;;;;;26.35;51.64;99522.19;125775;1093;22757;-62
2021/08/16 08:44:50;;;;;;;8.35;2.25;;;;;;;26.37;51.18;99520.22;125940;1092;22915;-62
2021/08/16 08:47:22;;;;;;;9.08;1.75;;;;;;;26.45;50.93;99517.17;125865;1093;22849;-62
2021/08/16 08:49:53;;;;;;;7.25;1.83;;;;;;;26.53;49.69;99519.88;125846;1093;22745;-62
2021/08/16 08:52:25;;;;;;;7.08;1.35;;;;;;;26.62;49.47;99513.34;125807;1093;22781;-62
2021/08/16 08:54:58;;;;;;;4.80;1.30;;;;;;;26.71;49.09;99513.33;125732;1093;26153;-62
2021/08/16 08:57:31;;;;;;;8.33;1.77;;;;;;;26.75;48.80;99516.50;125994;1093;27294;-62
2021/08/16 09:00:03;;;;;;;7.55;1.33;;;;;;;26.80;47.59;99511.78;125860;1093;22787;-61
2021/08/16 09:02:34;;;;;;;9.03;1.35;;;;;;;26.83;47.29;99504.85;126218;1093;22786;-62
2021/08/16 09:05:07;;;;;;;6.10;1.28;;;;;;;26.80;47.41;99503.20;125787;1093;27162;-62
2021/08/16 09:07:41;;;;;;;12.80;1.70;;;;;;;26.81;46.63;99499.73;126070;1092;22760;-62
2021/08/16 09:10:16;;;;;;;4.55;1.23;;;;;;;26.85;47.28;99502.13;125856;1093;22851;-62
2021/08/16 09:12:49;;;;;;;5.40;1.15;;;;;;;26.94;45.34;99507.80;125903;1093;22763;-62
2021/08/16 09:15:23;;;;;;;5.33;1.18;;;;;;;27.03;46.09;99501.27;125804;1093;24787;-63
2021/08/16 09:17:54;;;;;;;7.60;1.53;;;;;;;27.08;46.13;99493.70;125785;1091;22851;-63
2021/08/16 09:20:30;;;;;;;6.48;1.30;;;;;;;27.15;45.83;99492.73;125798;1093;25842;-62
2021/08/16 09:23:04;;;;;;;5.40;1.10;;;;;;;27.24;45.34;99486.20;126003;1092;25957;-62
2021/08/16 09:25:39;;;;;;;7.07;1.33;;;;;;;27.27;44.74;99476.39;126108;1093;24443;-63
2021/08/16 09:28:11;;;;;;;6.58;1.10;;;;;;;27.30;44.42;99472.28;125990;1093;22758;-62
2021/08/16 09:30:43;;;;;;;8.75;1.25;;;;;;;27.39;44.29;99485.83;125832;1092;22732;-63
2021/08/16 09:33:18;;;;;;;4.33;1.08;;;;;;;27.44;44.39;99481.13;125885;1093;22848;-63
2021/08/16 09:35:55;;;;;;;6.68;1.40;;;;;;;27.43;43.69;99477.50;125934;1091;22758;-62
2021/08/16 09:38:39;;;;;;;7.23;1.33;;;;;;;27.45;43.73;99480.50;125911;1092;22757;-63
2021/08/16 09:41:23;;;;;;;6.50;1.40;;;;;;;27.54;44.33;99487.53;126059;1092;22841;-62
2021/08/16 09:44:08;;;;;;;5.48;1.30;;;;;;;27.64;43.64;99482.45;125944;1093;25810;-62
2021/08/16 09:46:41;;;;;;;6.53;1.30;;;;;;;27.73;43.91;99488.09;125836;1089;22761;-63
2021/08/16 09:49:12;;;;;;;6.07;1.17;;;;;;;27.84;41.79;99495.25;125935;1093;22918;-63
2021/08/16 09:51:44;;;;;;;5.40;1.25;;;;;;;27.87;42.02;99485.42;125841;1093;23193;-63
2021/08/16 09:54:17;;;;;;;5.10;1.00;;;;;;;27.89;42.42;99488.42;125847;1093;22764;-63
2021/08/16 09:56:50;;;;;;;4.25;1.10;;;;;;;27.93;42.39;99475.06;125924;1093;22771;-64
2021/08/16 09:59:22;;;;;;;3.28;1.05;;;;;;;27.97;41.66;99472.52;125933;1093;22838;-63
2021/08/16 10:01:54;;;;;;;3.93;1.10;;;;;;;27.98;40.78;99476.87;125842;1093;22883;-63
2021/08/16 10:04:26;;;;;;;7.53;1.37;;;;;;;28.07;41.89;99477.38;125930;1093;24459;-63
2021/08/16 10:06:58;;;;;;;8.25;1.43;;;;;;;28.16;42.03;99476.55;125865;1092;24456;-64
2021/08/16 10:09:31;;;;;;;5.85;1.30;;;;;;;28.27;41.74;99470.81;125919;1091;22758;-63
2021/08/16 10:12:04;;;;;;;6.75;1.53;;;;;;;28.36;42.06;99472.83;125880;1092;26886;-64
2021/08/16 10:14:37;;;;;;;4.73;1.25;;;;;;;28.43;42.41;99459.61;126212;1093;22842;-63
2021/08/16 10:17:10;;;;;;;4.53;1.40;;;;;;;28.50;41.78;99459.36;125847;1093;22864;-63
2021/08/16 10:19:44;;;;;;;5.00;1.20;;;;;;;28.59;41.85;99457.77;125905;1093;22858;-63
2021/08/16 10:22:15;;;;;;;8.60;1.43;;;;;;;28.64;41.50;99457.38;125907;1093;26277;-63
2021/08/16 10:24:47;;;;;;;8.35;1.45;;;;;;;28.65;41.74;99446.66;125857;1093;22792;-63
2021/08/16 10:27:19;;;;;;;5.38;1.30;;;;;;;28.70;42.05;99446.27;125819;1092;22780;-64
2021/08/16 10:29:50;;;;;;;5.10;1.50;;;;;;;28.76;42.08;99443.77;125940;1093;24418;-63
2021/08/16 10:32:23;;;;;;;4.03;1.33;;;;;;;28.74;41.70;99435.02;125787;1092;22841;-63
2021/08/16 10:35:05;;;;;;;8.70;1.60;;;;;;;28.74;41.80;99440.04;126107;1093;25961;-63
2021/08/16 10:37:40;;;;;;;6.55;1.30;;;;;;;28.75;41.80;99430.03;126015;1092;23454;-63
2021/08/16 10:40:39;;;;;;;6.33;1.53;;;;;;;28.74;42.09;99429.27;125932;1093;22921;-63
2021/08/16 10:43:13;;;;;;;8.23;2.00;;;;;;;28.77;42.35;99421.53;125837;1093;23064;-64
2021/08/16 10:45:49;;;;;;;7.43;1.53;;;;;;;28.82;42.69;99426.16;125916;1093;26814;-63
2021/08/16 10:48:27;;;;;;;6.60;1.75;;;;;;;28.87;42.24;99425.02;125620;1091;23087;-63
2021/08/16 10:51:09;;;;;;;5.73;1.40;;;;;;;28.95;42.26;99421.90;125927;1093;22813;-63
2021/08/16 10:53:50;;;;;;;4.90;1.55;;;;;;;29.01;42.01;99420.11;126050;1091;22788;-63
2021/08/16 10:56:22;;;;;;;7.48;1.58;;;;;;;29.01;41.53;99408.61;125946;1092;22914;-64
2021/08/16 10:58:55;;;;;;;5.45;1.45;;;;;;;29.00;42.26;99412.88;125820;1093;24421;-63
2021/08/16 11:01:31;;;;;;;3.85;1.35;;;;;;;28.99;42.02;99417.12;125866;1093;22835;-64
2021/08/16 11:04:04;;;;;;;5.73;1.70;;;;;;;28.98;41.84;99409.89;125823;1091;26207;-63
2021/08/16 11:06:36;;;;;;;6.18;1.70;;;;;;;28.95;41.83;99410.41;125843;1093;25839;-63
2021/08/16 11:09:08;;;;;;;8.48;1.80;;;;;;;28.92;42.21;99405.90;125883;1093;22789;-63
2021/08/16 11:11:52;;;;;;;4.68;1.50;;;;;;;28.96;42.32;99406.89;125951;1093;25835;-63
2021/08/16 11:14:27;;;;;;;9.20;2.60;;;;;;;28.98;41.50;99394.77;125956;1093;22793;-64
2021/08/16 11:17:00;;;;;;;6.80;1.78;;;;;;;28.99;41.00;99402.75;126033;1091;25871;-63
2021/08/16 11:19:43;;;;;;;4.63;1.40;;;;;;;29.05;41.71;99400.23;125819;1093;22809;-63
2021/08/16 11:22:16;;;;;;;7.15;1.40;;;;;;;29.14;40.61;99401.45;125883;1093;22851;-63
2021/08/16 11:24:48;;;;;;;3.93;1.30;;;;;;;29.09;40.48;99400.50;125895;1093;22761;-63
2021/08/16 11:27:23;;;;;;;7.70;1.47;;;;;;;29.10;40.88;99396.23;126138;1092;22800;-63
2021/08/16 11:30:04;;;;;;;11.78;1.30;;;;;;;29.17;40.33;99398.13;126382;1093;22819;-63
2021/08/16 11:32:37;;;;;;;4.95;1.20;;;;;;;29.26;40.14;99399.34;125903;1093;24459;-63
2021/08/16 11:35:11;;;;;;;6.03;1.20;;;;;;;29.32;40.08;99391.07;125799;1092;22795;-63
2021/08/16 11:37:48;;;;;;;9.15;1.38;;;;;;;29.37;40.18;99384.91;125935;1092;22787;-63
2021/08/16 11:40:21;;;;;;;7.05;1.60;;;;;;;29.43;40.38;99387.38;125849;1093;22809;-63
2021/08/16 11:42:53;;;;;;;5.50;1.80;;;;;;;29.48;40.08;99386.24;125995;1093;24491;-63